Dauntless Aviation
Airports Asia Taiwan
RCGM

Taoyuan Air Base (Closed)

Taoyuan City, TAIWAN

Airport Info
Suggest Updated Information for this Airport

Location

Latitude / Longitude: 25°3'23"N / 121°14'39"E
  25°3.396'N / 121°14.658'E
  25.0566 / 121.2443
Satellite photo at:
Airport distance calculator
From:
Weather Reports

METAR

RCTP
1.6nm W
RCTP 110230Z 03010KT 6000 -RA SCT003 BKN005 BKN015 20/20 Q1020 NOSIG RMK A3012
RCSS
15.7nm NE
RCSS 110230Z 10008KT 8000 3500E -DZ SCT005 BKN008 BKN020 21/20 Q1019 TEMPO 4000 BR RMK A3010

TAF

RCTP
1.6nm W
TAF RCTP 102300Z 1100/1206 03012KT 9999 SCT005 BKN008 BKN015 TEMPO 1100/1103 35010KT 5000 RA SCT003 BKN005 BKN012 TEMPO 1104/1108 SCT008 BKN014 BKN020 BECMG 1108/1110 03020KT FEW010 BKN017 TEMPO 1117/1123 04023G33KT 5000 BR SCT006 BKN009 BKN015
RCSS
15.7nm NE
TAF RCSS 102300Z 1100/1124 09005KT 9000 FEW010 BKN032 TEMPO 1100/1104 33005KT 5000 RA SCT010 BKN018 BKN040 TEMPO 1105/1110 FEW010 BKN020
Safelog

 

Dauntless Aviation

© 2007-2018 Dauntless Aviation, all rights reserved
Information provided via PilotNav comes from a variety of official and unofficial data sources. As errors are possible, do not use PilotNav for primary flight planning purposes. Verify any information that you receive via PilotNav with current and canonical charts and other official documents. The material in this database is subject to database copyrights held by Dauntless Aviation and may not be copied without the express permission of Dauntless Aviation - licenses for use of part of all of this data are available for purchase; enquire via the Dauntless Aviation helpdesk. A number of mechanisms and markers exist in the database to protect against and identify infringement / copyright. Automated queries against this website are stictly prohibited, and all activity is logged and analyzed.